Airfield :
LOGIN :

Register | Disclaimer

   EN    FR    IT 

 










Legend :    VFR   Marginal VFR   IFR   Intensive IFR   Very Intensive IFR
Visi :
Ceiling :
>= 8 km
>= 3000ft
5 to 8 km
1000 to 3000 ft
1500m to 5 km
500 to 1000 ft
800 to 1500m
200 to 500 ft
< 800m
< 200 ft
Symbols :   Thunderstorms  Fog  Heavy snow  Heavy precipitations  Wind > 20 kt
SIGMETs :     Misc.  Thunderstorms  Icing  Turbulence  Mountain Waves  Volcanic Ashes






- Airport Elevation : 49 ft
- IATA code : GLZ


EHGR - Gilze-Rijen Airbase

CURRENT METAR :
  • 161225Z AUTO 19004KT 130V250 9999 DZ FEW054 BKN061 OVC067 09/07 Q1004 BLU 19010KT 9999 -DZ FEW040 SCT050 BKN060

EXPIRED METARs :
  • 161155Z AUTO 19005KT 150V230 9999 FEW045 BKN065 OVC071 09/07 Q1004 BLU 19010KT 9999 -DZ FEW040 SCT050 BKN060
  • 161125Z AUTO 19007KT 130V230 9999 -DZ OVC089 09/07 Q1004 REDZ BLU 19010KT 9999 -DZ FEW040 SCT050 BKN060
  • 161055Z AUTO 18008KT 140V220 9999 FEW040 BKN044 OVC049 08/07 Q1004 BLU 19010KT 9999 -DZ FEW040 SCT050 BKN060
  • 161034Z AUTO 19008KT 140V230 9999 -DZ FEW043 SCT047 BKN062 08/07 Q1005 BLU 19010KT 9999 -DZ FEW040 SCT050 BKN060
  • 161025Z AUTO 18008KT 150V220 9999 DZ FEW048 SCT054 BKN067 08/07 Q1005 BLU 19010KT CAVOK
  • 160955Z AUTO 20006KT 140V240 9999 -RADZ SCT056 BKN062 BKN077 08/07 Q1005 BLU 19010KT CAVOK

TAF TAF EHGR
Valid from the 16 at 10:00 until the 16 at 22:00 UTC


160903Z 1610/1622 19007KT 9999 BKN045
BECMG 1615/1617 10005KT
TEMPO 1616/1620 4000 RA SCT008 BKN012



MET'MAP, your aeronautical weather chart ! - Copyright ORBIFLY December 2007 - Disclaimer

ORBIFLY MET'MAP TEAM :

Programming & Development : Alexandra Zaïnal
Concept & original design : Baudouin d'Aumeries
Assistance for programming : Marc-Olivier Méhu
Technical & hardware support : Manuel Goepfert

Contact : metmap@orbifly.com




SOURCES & CREDITS :

   NOAA